Flight Track Log - Related Links

Times and Time Zones

All times are in EDT time to prevent confusion due to time zone crossing. See the UAL5904 flight status page for this flight to view local times or setup timezone preferences in your user account.

Time Position Orientation Groundspeed Altitude Reporting Facility
EDT Latitude Longitude Course Direction KTS MPH feet Rate Location/Type
Wed 11:58:29 AM 41.9000 -87.8667 73° East 189 217 3,400  Level Chicago TRACON
Wed 11:59:54 AM 41.8467 -87.7864 132° Southeast 238 274 5,000 898 Climbing Chicago Center
Wed 12:00:56 PM 41.7908 -87.6811 125° Southeast 275 316 5,600 1,210 Climbing Chicago Center
Wed 12:01:00 PM 41.8120 -87.4427 90° East  Level Estimated
Wed 12:01:58 PM 41.7878 -87.5711 92° East 296 341 7,500  Level Chicago Center
Wed 12:02:00 PM 41.7693 -87.3271 85° East  Level Estimated
Wed 12:03:00 PM 41.7972 -87.2039 73° East  Level FlightAware Approximate
Wed 12:03:00 PM 41.7961 -87.4578 84° East 305 351 9,300  Level Chicago Center
Wed 12:04:01 PM 41.8139 -87.3392 79° East 321 369 11,300 1,707 Climbing Chicago Center
Wed 12:05:03 PM 41.8286 -87.2164 81° East 331 381 12,800 1,113 Climbing Chicago Center
Wed 12:06:05 PM 41.8472 -87.0833 79° East 362 417 13,600 1,065 Climbing Chicago Center
Wed 12:07:07 PM 41.8544 -86.9422 86° East 376 433 15,000 1,161 Climbing Chicago Center
Wed 12:08:09 PM 41.8422 -86.7667 95° East 393 452 16,000 927 Climbing Chicago Center
Wed 12:09:10 PM 41.8314 -86.6339 96° East 403 464 16,900 878 Climbing Chicago Center
Wed 12:10:12 PM 41.8211 -86.4817 95° East 410 472 17,800 1,016 Climbing Chicago Center
Wed 12:11:14 PM 41.8069 -86.2972 96° East 415 478 19,000 1,065 Climbing Chicago Center
Wed 12:12:16 PM 41.7953 -86.1422 96° East 419 482 20,000 968 Climbing Chicago Center
Wed 12:13:18 PM 41.7839 -85.9853 96° East 422 486 21,000 968 Climbing Chicago Center
Wed 12:14:20 PM 41.7719 -85.8272 96° East 426 490 22,000 968 Climbing Chicago Center
Wed 12:15:22 PM 41.7569 -85.6681 97° East 430 495 23,000 484 Climbing Chicago Center
Wed 12:16:24 PM 41.6831 -85.5458 129° Southeast 433 498 23,000  Level Chicago Center
Wed 12:17:26 PM 41.5639 -85.4281 144° Southeast 455 524 23,000  Level Chicago Center
Wed 12:18:28 PM 41.4636 -85.3394 146° Southeast 456 525 23,000  Level Chicago Center
Wed 12:19:29 PM 41.3586 -85.2403 145° Southeast 462 532 23,000  Level Chicago Center
Wed 12:20:31 PM 41.2533 -85.1442 146° Southeast 461 531 23,000  Level Chicago Center
Wed 12:21:33 PM 41.1264 -85.0281 145° Southeast 463 533 23,000  Level Chicago Center
Wed 12:22:35 PM 41.0211 -84.9317 145° Southeast 461 531 23,000  Level Chicago Center
Wed 12:23:37 PM 40.9164 -84.8353 145° Southeast 461 531 23,000 -435 Level Chicago Center
Wed 12:24:39 PM 40.8339 -84.7142 132° Southeast 457 526 22,100 -1,009 Descending Chicago Center
Wed 12:25:24 PM 40.8011 -84.6108 113° Southeast 442 509 21,200 -617 Descending Indianapolis Center
Wed 12:26:26 PM 40.7450 -84.4308 112° Southeast 443 510 21,000 -97 Descending Indianapolis Center
Wed 12:27:28 PM 40.6983 -84.2797 112° Southeast 444 511 21,000  Level Indianapolis Center
Wed 12:28:29 PM 40.6511 -84.1289 112° Southeast 445 512 21,000 -683 Level Indianapolis Center
Wed 12:29:31 PM 40.6044 -83.9817 113° Southeast 438 504 19,600 -1,694 Descending Indianapolis Center
Wed 12:30:33 PM 40.5589 -83.8389 113° Southeast 427 491 17,500 -2,244 Descending Indianapolis Center
Wed 12:31:34 PM 40.5153 -83.7025 113° Southeast 408 470 15,000 -2,750 Descending Indianapolis Center
Wed 12:31:45 PM 40.5008 -83.6592 114° Southeast 398 458 14,200 -2,800 Descending Indianapolis Center
Wed 12:32:34 PM 40.4667 -83.5569 114° Southeast 385 443 12,200 -2,000 Descending Indianapolis Center
Wed 12:32:36 PM 40.4728 -83.5714 299° West 394 453 12,500 -2,066 Climbing Indianapolis Center
Wed 12:33:35 PM 40.4283 -83.4350 113° Southeast 363 418 10,100 -2,361 Descending Indianapolis Center
Wed 12:33:37 PM 40.4333 -83.4467 299° West 378 435 10,100 -1,111 Level Indianapolis Center
Wed 12:34:29 PM 40.4072 -83.3297 106° East 306 352 9,100 -968 Descending Indianapolis Center
Wed 12:34:39 PM 40.4092 -83.3356 294° West 338 389 9,100 -1,279 Level Indianapolis Center
Wed 12:35:30 PM 40.4042 -83.2303 94° East 287 330 7,800 -1,574 Descending Indianapolis Center
Wed 12:35:40 PM 40.4042 -83.2053 90° East 302 348 7,500 -1,279 Descending Indianapolis Center
Wed 12:36:31 PM 40.4000 -83.1222 94° East 290 334 6,500 -1,258 Descending Indianapolis Center
Wed 12:36:42 PM 40.3983 -83.1008 96° East 292 336 6,200 -1,164 Descending Indianapolis Center
Wed 12:37:38 PM 40.3939 -83.0086 94° East 268 308 5,200 -1,065 Descending Indianapolis Center
Wed 12:37:44 PM 40.3939 -83.0022 90° East 279 321 5,100 -179 Descending Indianapolis Center
Wed 12:38:45 PM 40.3889 -82.9047 94° East 271 312 5,000 -259 Descending Indianapolis Center
Wed 12:39:40 PM 40.3831 -82.8119 95° East 272 313 4,600 -387 Descending Indianapolis Center
Wed 12:39:47 PM 40.3839 -82.8086 72° East 273 314 4,600 -590 Level Indianapolis Center
Wed 12:40:41 PM 40.3794 -82.7153 94° East 264 304 4,000 -590 Descending Indianapolis Center
Wed 12:40:48 PM 40.3781 -82.6958 95° East 268 308 4,000  Level Indianapolis Center
Wed 12:41:42 PM 40.3606 -82.6244 108° East 248 285 4,000  Level Indianapolis Center
Wed 12:41:50 PM 40.3564 -82.6178 129° Southeast 247 284 4,000  Level Indianapolis Center
Wed 12:42:43 PM 40.3161 -82.5597 132° Southeast 239 275 4,000  Level Indianapolis Center
Wed 12:42:52 PM 40.3106 -82.5514 131° Southeast 246 283 4,000  Level Indianapolis Center
Wed 12:43:43 PM 40.2567 -82.5425 173° South 231 266 4,000  Level Indianapolis Center
Wed 12:43:53 PM 40.2472 -82.5425 180° South 242 278 4,000  Level Indianapolis Center
Wed 12:44:44 PM 40.1939 -82.5628 196° South 233 268 4,000 -194 Level Indianapolis Center
Wed 12:44:55 PM 40.1825 -82.5642 185° South 234 269 3,800 -1,091 Descending Indianapolis Center
Wed 12:45:39 PM 40.1339 -82.5781 192° South 233 268 3,000 -787 Descending Indianapolis Center
Wed 12:45:56 PM 40.1189 -82.5836 196° South 232 267 3,000  Level Indianapolis Center
Wed 12:46:40 PM 40.0722 -82.6094 203° Southwest 243 280 3,000  Level Indianapolis Center
Wed 12:46:58 PM 40.0567 -82.6175 202° Southwest 239 275 3,000  Level Indianapolis Center
Wed 12:48:00 PM 39.9986 -82.6508 204° Southwest 235 270 3,000  Level Indianapolis Center
Wed 12:48:42 PM 39.9914 -82.7117 261° West 227 261 3,000 -98 Level Indianapolis Center
Wed 12:49:01 PM 39.9933 -82.7319 277° West 232 267 2,900 -800 Descending Indianapolis Center
Wed 12:49:42 PM 39.9964 -82.7917 274° West 200 230 2,200 -774 Descending Indianapolis Center
Wed 12:50:03 PM 39.9975 -82.7992 281° West 201 231 2,100 -787 Descending Indianapolis Center
Wed 12:50:43 PM 39.9981 -82.8411 271° West 127 146 1,400 -774 Descending Indianapolis Center
Wed 12:51:05 PM 39.9989 -82.8500 277° West 162 186 1,300 -289 Descending Indianapolis Center
Wed 12:52:06 PM 40.0039 -82.9092 276° West 153 176 1,000 -295 Descending Indianapolis Center

Login

Don't have an account? Register now (free) for customized features, flight alerts, and more!